Time;durP1;ratioP1;P1;durP2;ratioP2;P2;SDS_P1;SDS_P2;PMS_P1;PMS_P2;Temp;Humidity;BMP_temperature;BMP_pressure;BME280_temperature;BME280_humidity;BME280_pressure;Samples;Min_cycle;Max_cycle;Signal;HPM_P1;HPM_P2
2022/07/31 00:01:24;;;;;;;13.10;5.90;;;;;;;20.10;67.18;98244.22;4502157;31;20099;-84
2022/07/31 00:03:50;;;;;;;13.23;6.15;;;;;;;19.96;67.58;98245.66;4502237;31;20076;-84
2022/07/31 00:06:17;;;;;;;10.82;5.45;;;;;;;19.71;68.24;98246.44;4502217;31;20111;-84
2022/07/31 00:08:43;;;;;;;11.80;6.10;;;;;;;19.83;68.11;98245.22;4502144;31;20118;-85
2022/07/31 00:11:10;;;;;;;11.73;5.43;;;;;;;19.93;67.42;98234.41;4487797;31;20370;-84
2022/07/31 00:13:36;;;;;;;12.35;5.93;;;;;;;19.81;67.57;98229.31;4502139;31;20098;-84
2022/07/31 00:16:02;;;;;;;12.45;6.00;;;;;;;19.82;67.71;98231.03;4502135;31;20119;-84
2022/07/31 00:18:27;;;;;;;11.20;5.90;;;;;;;19.97;66.84;98233.09;4502089;31;20475;-84
2022/07/31 00:20:53;;;;;;;12.25;6.47;;;;;;;19.48;68.94;98233.56;4501865;31;20084;-85
2022/07/31 00:23:18;;;;;;;12.32;6.22;;;;;;;19.74;67.46;98230.97;4501921;31;20102;-84
2022/07/31 00:25:43;;;;;;;11.20;5.43;;;;;;;19.87;67.14;98235.88;4501895;31;20092;-85
2022/07/31 00:28:09;;;;;;;12.32;6.15;;;;;;;19.66;67.56;98238.88;4501769;31;20473;-84
2022/07/31 00:30:34;;;;;;;11.98;6.05;;;;;;;19.52;67.79;98237.59;4501840;31;20106;-84
2022/07/31 00:32:59;;;;;;;11.63;6.22;;;;;;;19.59;67.48;98237.84;4501767;31;20451;-85
2022/07/31 00:35:25;;;;;;;11.95;6.22;;;;;;;19.81;66.41;98240.03;4487371;31;20119;-85
2022/07/31 00:37:50;;;;;;;11.57;5.90;;;;;;;20.08;65.43;98240.03;4501827;31;20100;-85
2022/07/31 00:40:16;;;;;;;11.93;5.78;;;;;;;20.11;65.39;98237.91;4501755;31;20438;-85
2022/07/31 00:42:42;;;;;;;12.63;6.45;;;;;;;19.94;66.09;98242.28;4501550;31;20128;-85
2022/07/31 00:45:08;;;;;;;13.32;6.87;;;;;;;20.45;64.30;98236.22;4487292;31;20128;-84
2022/07/31 00:47:34;;;;;;;11.35;6.40;;;;;;;20.04;65.72;98240.34;4487234;31;20160;-85
2022/07/31 00:49:59;;;;;;;11.85;6.00;;;;;;;19.96;66.35;98240.31;4471286;32;20419;-85
2022/07/31 00:52:25;;;;;;;12.40;6.30;;;;;;;19.76;66.73;98247.69;4471442;32;20085;-85
2022/07/31 00:54:50;;;;;;;13.32;6.12;;;;;;;20.00;65.80;98243.50;4485735;31;20183;-85
2022/07/31 00:57:16;;;;;;;12.45;5.95;;;;;;;20.39;64.36;98243.88;4485514;31;20480;-85
2022/07/31 00:59:42;;;;;;;12.48;6.45;;;;;;;20.08;65.19;98250.75;4484501;32;20352;-85
2022/07/31 01:02:08;;;;;;;11.90;6.10;;;;;;;20.25;64.34;98246.34;4484451;32;20084;-85
2022/07/31 01:04:34;;;;;;;13.77;6.25;;;;;;;20.01;64.81;98255.84;4485698;31;20112;-85
2022/07/31 01:06:59;;;;;;;11.15;5.22;;;;;;;20.13;64.42;98253.78;4484259;32;20506;-85
2022/07/31 01:09:25;;;;;;;11.05;5.43;;;;;;;19.77;65.22;98262.72;4485829;31;20080;-84
2022/07/31 01:12:06;;;;;;;10.80;5.05;;;;;;;19.39;66.59;98254.03;4486598;31;20360;-85
2022/07/31 01:14:35;;;;;;;12.05;4.70;;;;;;;19.37;66.66;98258.69;4486755;32;20101;-84
2022/07/31 01:17:02;;;;;;;10.85;4.57;;;;;;;19.37;66.62;98268.50;4487928;31;20108;-84
2022/07/31 01:19:39;;;;;;;9.60;4.15;;;;;;;19.40;66.02;98257.53;4473724;32;20487;-85
2022/07/31 01:22:42;;;;;;;10.25;4.28;;;;;;;19.15;66.74;98254.59;4488009;31;20072;-84
2022/07/31 01:25:33;;;;;;;8.80;3.65;;;;;;;19.12;66.31;98260.25;4488114;31;20564;-85
2022/07/31 01:28:20;;;;;;;8.15;3.30;;;;;;;19.00;67.11;98264.13;4487824;31;20104;-84
2022/07/31 01:30:49;;;;;;;8.63;3.70;;;;;;;19.39;65.44;98256.69;4487928;31;20542;-84
2022/07/31 01:33:21;;;;;;;10.32;4.00;;;;;;;19.43;64.88;98266.09;4487860;31;20102;-85
2022/07/31 01:35:51;;;;;;;7.70;3.15;;;;;;;19.56;64.62;98262.16;4486631;32;20127;-84
2022/07/31 01:38:22;;;;;;;10.05;3.33;;;;;;;19.21;66.01;98264.69;4486623;32;20105;-84
2022/07/31 01:40:50;;;;;;;9.73;3.20;;;;;;;19.52;64.46;98250.13;4486661;32;20088;-85
2022/07/31 01:43:22;;;;;;;8.40;3.20;;;;;;;19.74;63.86;98268.38;4486525;32;20144;-84
2022/07/31 01:45:53;;;;;;;8.20;3.20;;;;;;;19.81;63.36;98257.91;4486511;32;20088;-84
2022/07/31 01:48:20;;;;;;;7.05;2.90;;;;;;;19.42;64.57;98271.56;4486422;32;20096;-84
2022/07/31 01:50:46;;;;;;;7.10;2.85;;;;;;;19.71;63.67;98257.97;4503145;31;20092;-84
2022/07/31 01:53:14;;;;;;;8.25;3.17;;;;;;;19.88;62.93;98264.31;4503513;31;20083;-84
2022/07/31 01:55:40;;;;;;;;;;;;;;;19.78;63.31;98248.37;4489410;31;20097;-85
2022/07/31 01:58:06;;;;;;;8.88;2.65;;;;;;;19.98;62.86;98256.19;4489027;31;20045;-85
2022/07/31 02:00:31;;;;;;;8.02;2.78;;;;;;;19.93;62.96;98256.63;4489039;31;20163;-85
2022/07/31 02:02:58;;;;;;;6.68;2.70;;;;;;;20.14;62.43;98250.94;4488920;31;20084;-85
2022/07/31 02:05:24;;;;;;;7.25;2.70;;;;;;;20.06;62.21;98244.72;4488905;31;20092;-85
2022/07/31 02:07:51;;;;;;;7.57;2.75;;;;;;;20.15;62.17;98254.47;4503373;31;20171;-85
2022/07/31 02:10:17;;;;;;;6.95;2.65;;;;;;;20.42;60.96;98248.94;4489243;31;20592;-85
2022/07/31 02:12:43;;;;;;;6.78;2.40;;;;;;;20.46;60.74;98237.91;4488921;31;20187;-85
2022/07/31 02:15:10;;;;;;;9.02;2.58;;;;;;;20.06;61.85;98253.56;4503522;31;20427;-85
2022/07/31 02:17:36;;;;;;;;;;;;;;;20.25;61.61;98252.50;4503966;31;20118;-85
2022/07/31 02:20:04;;;;;;;7.68;2.62;;;;;;;20.43;60.98;98255.94;4489372;31;19976;-84
2022/07/31 02:22:30;;;;;;;6.07;2.45;;;;;;;19.77;62.48;98235.97;4488865;31;20076;-84
2022/07/31 02:24:56;;;;;;;6.57;2.42;;;;;;;19.80;62.65;98241.03;4503480;31;20111;-84
2022/07/31 02:27:22;;;;;;;6.47;2.40;;;;;;;20.22;61.05;98237.62;4489034;31;20112;-85
2022/07/31 02:29:48;;;;;;;5.32;2.28;;;;;;;20.00;61.84;98230.13;4488757;31;20371;-84
2022/07/31 02:32:14;;;;;;;7.53;2.35;;;;;;;19.67;62.80;98237.06;4488769;31;20132;-85
2022/07/31 02:34:39;;;;;;;5.53;2.30;;;;;;;19.61;62.97;98238.50;4488696;31;20100;-84
2022/07/31 02:37:05;;;;;;;6.05;2.28;;;;;;;20.05;61.71;98230.50;4503019;31;20122;-84
2022/07/31 02:39:32;;;;;;;5.78;2.30;;;;;;;20.13;60.99;98232.41;4488801;31;20080;-85
2022/07/31 02:41:59;;;;;;;6.50;2.43;;;;;;;20.37;60.16;98224.47;4488799;31;20084;-85
2022/07/31 02:44:26;;;;;;;8.38;2.37;;;;;;;20.19;60.74;98235.25;4503062;31;20491;-85
2022/07/31 02:46:52;;;;;;;5.62;2.20;;;;;;;19.74;61.95;98227.44;4488645;31;20099;-85
2022/07/31 02:49:18;;;;;;;6.87;2.42;;;;;;;19.93;61.33;98234.41;4502829;31;20160;-85
2022/07/31 02:51:44;;;;;;;6.65;2.42;;;;;;;19.81;61.58;98229.31;4488710;31;20095;-84
2022/07/31 02:54:09;;;;;;;7.62;2.70;;;;;;;20.06;60.87;98229.50;4503007;31;20359;-85
2022/07/31 02:56:35;;;;;;;6.65;2.22;;;;;;;20.07;60.59;98228.53;4489101;31;20096;-85
2022/07/31 02:59:01;;;;;;;7.37;2.70;;;;;;;20.08;60.49;98208.78;4488876;31;20114;-85
2022/07/31 03:01:26;;;;;;;6.93;2.67;;;;;;;20.23;60.14;98239.28;4503151;31;20138;-85
2022/07/31 03:03:52;;;;;;;6.95;2.80;;;;;;;19.58;62.29;98238.81;4503205;31;20375;-85
2022/07/31 03:06:17;;;;;;;5.93;2.70;;;;;;;19.39;63.23;98234.47;4503182;31;20427;-85
2022/07/31 03:08:43;;;;;;;7.85;3.00;;;;;;;19.62;62.56;98221.47;4503127;31;20072;-85
2022/07/31 03:11:08;;;;;;;8.70;3.35;;;;;;;19.77;62.17;98235.97;4502886;31;20126;-85
2022/07/31 03:13:36;;;;;;;7.50;3.25;;;;;;;20.03;61.15;98243.19;4488560;31;20104;-85
2022/07/31 03:16:03;;;;;;;9.05;3.10;;;;;;;19.97;61.42;98238.47;4488498;31;20147;-85
2022/07/31 03:18:28;;;;;;;7.90;2.90;;;;;;;20.17;60.50;98231.91;4502739;31;20500;-85
2022/07/31 03:20:55;;;;;;;7.82;2.95;;;;;;;20.15;60.76;98233.06;4488460;31;20139;-85
2022/07/31 03:23:23;;;;;;;8.20;3.47;;;;;;;20.12;60.65;98241.41;4488387;31;20444;-85
2022/07/31 03:25:49;;;;;;;5.93;2.70;;;;;;;19.81;61.30;98237.34;4488329;31;20103;-85
2022/07/31 03:28:19;;;;;;;6.78;2.65;;;;;;;20.03;60.94;98237.84;4488401;31;20110;-85
2022/07/31 03:30:51;;;;;;;7.18;2.78;;;;;;;20.20;60.05;98228.94;4502768;31;20110;-85
2022/07/31 03:33:17;;;;;;;8.13;3.20;;;;;;;20.21;60.36;98233.28;4502766;31;20100;-85
2022/07/31 03:35:42;;;;;;;8.38;3.17;;;;;;;19.92;60.96;98236.25;4501835;31;20371;-84
2022/07/31 03:38:08;;;;;;;8.77;3.12;;;;;;;19.67;61.60;98232.53;4502919;31;20088;-84
2022/07/31 03:40:33;;;;;;;9.70;3.22;;;;;;;19.76;61.10;98238.81;4502912;31;20320;-85
2022/07/31 03:43:00;;;;;;;8.15;2.80;;;;;;;20.01;60.49;98229.97;4502746;31;20466;-84
2022/07/31 03:45:26;;;;;;;7.53;3.12;;;;;;;20.04;60.13;98229.66;4488416;31;20095;-85
2022/07/31 03:47:52;;;;;;;7.95;2.90;;;;;;;19.59;61.90;98236.00;4488023;31;20079;-85
2022/07/31 03:50:17;;;;;;;7.05;2.80;;;;;;;20.06;60.42;98229.50;4487483;31;20107;-84
2022/07/31 03:52:45;;;;;;;7.70;3.00;;;;;;;20.02;60.29;98239.66;4502469;31;20096;-85
2022/07/31 03:55:10;;;;;;;7.95;2.87;;;;;;;20.34;59.48;98226.63;4488019;31;20104;-85
2022/07/31 03:57:36;;;;;;;7.87;3.00;;;;;;;20.57;58.60;98232.25;4502424;31;20324;-85
2022/07/31 04:00:03;;;;;;;8.68;3.30;;;;;;;20.82;57.99;98230.53;4502329;31;20148;-85
2022/07/31 04:02:29;;;;;;;8.07;3.50;;;;;;;20.34;58.73;98224.81;4487867;31;20126;-85
2022/07/31 04:04:56;;;;;;;8.57;3.72;;;;;;;20.30;59.21;98238.66;4502341;31;20087;-84
2022/07/31 04:07:21;;;;;;;7.97;3.30;;;;;;;20.54;58.71;98227.25;4487905;31;20080;-84
2022/07/31 04:09:47;;;;;;;8.13;3.12;;;;;;;20.55;58.37;98227.09;4487870;31;20146;-85
2022/07/31 04:12:12;;;;;;;7.60;3.20;;;;;;;20.03;60.10;98232.50;4502162;31;20085;-84
2022/07/31 04:14:37;;;;;;;8.90;3.50;;;;;;;20.48;58.69;98238.59;4501982;31;20153;-84
2022/07/31 04:17:03;;;;;;;8.32;3.37;;;;;;;20.38;58.88;98246.75;4487683;31;20076;-85
2022/07/31 04:19:31;;;;;;;7.53;3.05;;;;;;;20.48;58.74;98234.06;4501985;31;20393;-85
2022/07/31 04:21:57;;;;;;;8.02;3.45;;;;;;;20.42;58.80;98254.28;4501992;31;20141;-84
2022/07/31 04:24:23;;;;;;;7.35;3.22;;;;;;;19.81;60.69;98245.38;4502051;31;20126;-85
2022/07/31 04:26:49;;;;;;;8.10;3.58;;;;;;;19.86;60.51;98244.91;4501981;31;20348;-85
2022/07/31 04:29:15;;;;;;;8.15;3.50;;;;;;;20.01;60.16;98248.69;4501842;31;20079;-84
2022/07/31 04:31:40;;;;;;;10.43;3.83;;;;;;;19.94;60.26;98253.00;4487546;31;20193;-84
2022/07/31 04:34:05;;;;;;;8.65;3.80;;;;;;;19.53;61.47;98246.44;4487510;31;20347;-84
2022/07/31 04:36:31;;;;;;;9.13;3.33;;;;;;;19.58;61.34;98247.66;4501899;31;20084;-84
2022/07/31 04:38:58;;;;;;;8.65;3.40;;;;;;;19.29;62.65;98241.72;4501666;31;20467;-84
2022/07/31 04:41:23;;;;;;;7.70;3.22;;;;;;;19.60;61.81;98242.16;4487488;31;20131;-85
2022/07/31 04:43:48;;;;;;;8.25;3.30;;;;;;;19.87;61.09;98243.06;4501693;31;20084;-84
2022/07/31 04:46:14;;;;;;;7.62;2.97;;;;;;;19.24;62.71;98237.69;4501844;31;20076;-84
2022/07/31 04:48:39;;;;;;;8.15;3.00;;;;;;;19.24;62.97;98244.88;4503622;31;20107;-84
2022/07/31 04:51:05;;;;;;;7.87;3.00;;;;;;;19.31;62.84;98231.72;4503882;31;20106;-84
2022/07/31 04:53:31;;;;;;;7.12;2.92;;;;;;;19.28;63.03;98240.03;4503873;31;20197;-84
2022/07/31 04:58:40;;;;;;;8.10;3.05;;;;;;;18.99;64.16;98228.59;4503991;31;20119;-84
2022/07/31 05:01:06;;;;;;;8.63;3.10;;;;;;;19.32;62.91;98233.41;4503683;31;20351;-84
2022/07/31 05:03:31;;;;;;;8.02;3.20;;;;;;;18.93;64.23;98220.34;4503810;31;20106;-84
2022/07/31 05:06:08;;;;;;;9.32;3.08;;;;;;;18.91;64.89;98249.00;4503768;31;20149;-84
2022/07/31 05:08:33;;;;;;;7.70;3.10;;;;;;;19.37;63.40;98228.44;4489431;31;20106;-84
2022/07/31 05:13:42;;;;;;;9.13;3.20;;;;;;;18.61;66.60;98262.47;4503678;31;20156;-84
2022/07/31 05:16:10;;;;;;;9.55;3.60;;;;;;;18.73;66.94;98239.09;4503784;31;20093;-84
2022/07/31 05:18:36;;;;;;;9.93;3.42;;;;;;;18.62;68.14;98240.16;4489551;31;20137;-84
2022/07/31 05:21:02;;;;;;;8.63;3.70;;;;;;;18.17;70.93;98238.22;4503856;31;20092;-85
2022/07/31 05:23:27;;;;;;;9.07;4.00;;;;;;;18.01;72.96;98233.50;4489614;31;20135;-84
2022/07/31 05:25:52;;;;;;;11.32;4.03;;;;;;;18.08;72.76;98244.44;4489451;31;20115;-84
2022/07/31 05:28:18;;;;;;;9.35;4.03;;;;;;;18.11;73.09;98252.12;4489239;31;20106;-84
2022/07/31 05:30:43;;;;;;;8.90;3.65;;;;;;;17.76;73.39;98240.25;4503550;31;20180;-84
2022/07/31 05:33:09;;;;;;;9.13;3.80;;;;;;;18.22;72.47;98243.13;4503678;31;20110;-85
2022/07/31 05:35:34;;;;;;;9.85;3.78;;;;;;;18.15;72.27;98248.19;4503423;31;20106;-84
2022/07/31 05:38:00;;;;;;;8.23;3.67;;;;;;;18.08;72.76;98244.44;4503455;31;20360;-84
2022/07/31 05:40:26;;;;;;;9.35;3.85;;;;;;;18.06;73.12;98239.25;4503514;31;20092;-84
2022/07/31 05:42:51;;;;;;;8.65;3.53;;;;;;;17.80;73.79;98243.47;4489383;31;20088;-84
2022/07/31 05:45:17;;;;;;;9.60;3.62;;;;;;;18.06;72.25;98239.25;4503676;31;20146;-84
2022/07/31 05:47:42;;;;;;;11.12;3.87;;;;;;;17.97;72.40;98252.59;4503274;31;20128;-84
2022/07/31 05:50:08;;;;;;;9.32;4.18;;;;;;;17.77;73.96;98241.94;4503165;31;20092;-84
2022/07/31 05:52:33;;;;;;;8.70;3.90;;;;;;;17.96;72.73;98237.59;4489194;31;20126;-84
2022/07/31 05:54:59;;;;;;;8.68;3.75;;;;;;;17.91;73.16;98258.50;4489108;31;20115;-84
2022/07/31 05:57:24;;;;;;;8.60;3.62;;;;;;;18.05;72.33;98242.88;4502926;31;20080;-84
2022/07/31 05:59:50;;;;;;;8.45;3.80;;;;;;;17.84;73.85;98251.06;4503346;31;20100;-84
2022/07/31 06:02:24;;;;;;;9.50;3.83;;;;;;;17.67;73.91;98246.44;4503378;31;20447;-84
2022/07/31 06:04:49;;;;;;;9.15;4.12;;;;;;;17.58;74.51;98247.31;4503313;31;20201;-84
2022/07/31 06:07:15;;;;;;;9.60;3.75;;;;;;;17.95;72.75;98243.91;4503266;31;20076;-84
2022/07/31 06:09:40;;;;;;;9.13;3.75;;;;;;;17.66;74.20;98240.28;4503281;31;20115;-84
2022/07/31 06:12:06;;;;;;;8.77;3.85;;;;;;;17.37;75.77;98244.78;4503327;31;20084;-84
2022/07/31 06:14:31;;;;;;;8.82;3.90;;;;;;;17.60;75.81;98245.34;4503140;31;20110;-84
2022/07/31 06:16:56;;;;;;;9.52;4.18;;;;;;;18.00;74.15;98246.97;4503309;31;20100;-84
2022/07/31 06:19:22;;;;;;;8.70;3.78;;;;;;;18.10;73.10;98246.94;4503490;31;20390;-84
2022/07/31 06:21:47;;;;;;;10.05;3.90;;;;;;;17.79;74.66;98247.13;4503476;31;20110;-84
2022/07/31 06:24:13;;;;;;;8.40;3.95;;;;;;;17.61;75.37;98255.00;4503405;31;20083;-85
2022/07/31 06:26:38;;;;;;;8.90;3.78;;;;;;;17.79;74.69;98252.44;4503407;31;20144;-84
2022/07/31 06:29:04;;;;;;;8.60;3.67;;;;;;;18.11;73.03;98254.81;4503277;31;20111;-84
2022/07/31 06:31:29;;;;;;;8.98;3.47;;;;;;;18.07;73.38;98264.91;4488838;31;20152;-84
2022/07/31 06:33:55;;;;;;;9.60;4.07;;;;;;;18.33;72.03;98263.44;4488852;31;20360;-84
2022/07/31 06:36:20;;;;;;;9.57;4.37;;;;;;;18.22;71.46;98262.63;4488750;31;20119;-84
2022/07/31 06:38:46;;;;;;;9.88;3.60;;;;;;;18.20;71.83;98248.59;4503087;31;20112;-84
2022/07/31 06:41:43;;;;;;;10.00;3.75;;;;;;;18.32;71.32;98270.59;4488691;31;20092;-84
2022/07/31 06:43:57;;;;;;;8.50;3.50;;;;;;;18.69;69.26;98264.41;4491094;31;20092;-84
2022/07/31 06:46:22;;;;;;;10.75;3.75;;;;;;;18.63;69.22;98257.81;4503099;31;20084;-84
2022/07/31 06:48:48;;;;;;;8.13;4.00;;;;;;;18.55;69.82;98260.41;4488477;31;20099;-84
2022/07/31 06:51:13;;;;;;;10.27;4.10;;;;;;;18.35;70.19;98266.78;4503151;31;20404;-84
2022/07/31 06:53:38;;;;;;;8.48;3.85;;;;;;;18.33;70.49;98258.09;4503081;31;20337;-84
2022/07/31 06:56:04;;;;;;;8.50;3.87;;;;;;;18.45;71.29;98283.63;4503027;31;20108;-84
2022/07/31 06:58:30;;;;;;;8.38;3.90;;;;;;;18.35;71.19;98272.13;4502987;31;20089;-84
2022/07/31 07:00:56;;;;;;;9.05;3.72;;;;;;;18.59;70.05;98268.94;4503060;31;20091;-84
2022/07/31 07:03:21;;;;;;;10.48;3.58;;;;;;;18.44;69.99;98287.25;4502870;31;20072;-84
2022/07/31 07:05:46;;;;;;;8.63;3.35;;;;;;;18.38;69.92;98264.69;4502845;31;20205;-84
2022/07/31 07:08:12;;;;;;;7.93;3.17;;;;;;;18.41;70.29;98292.91;4502807;31;20401;-84
2022/07/31 07:10:37;;;;;;;8.63;3.47;;;;;;;18.88;68.61;98282.19;4501810;31;20110;-84
2022/07/31 07:13:03;;;;;;;8.02;3.28;;;;;;;18.54;68.83;98266.72;4502954;31;20110;-84
2022/07/31 07:15:28;;;;;;;10.27;3.50;;;;;;;18.60;69.31;98268.81;4488446;31;20092;-84
2022/07/31 07:17:53;;;;;;;8.23;3.33;;;;;;;18.75;69.07;98266.47;4502857;31;20111;-84
2022/07/31 07:20:19;;;;;;;7.87;3.47;;;;;;;18.91;68.30;98267.69;4502783;31;20119;-84
2022/07/31 07:22:45;;;;;;;8.50;2.92;;;;;;;18.83;68.32;98271.97;4502727;31;20096;-84
2022/07/31 07:25:11;;;;;;;8.60;3.53;;;;;;;18.67;69.40;98280.56;4502800;31;20388;-85
2022/07/31 07:27:36;;;;;;;8.02;3.08;;;;;;;19.03;68.39;98269.19;4502642;31;20084;-84
2022/07/31 07:30:03;;;;;;;6.95;2.90;;;;;;;18.70;69.07;98278.56;4502673;31;20130;-84
2022/07/31 07:32:29;;;;;;;7.65;2.92;;;;;;;19.09;67.89;98257.06;4488456;31;20483;-84
2022/07/31 07:34:54;;;;;;;9.98;2.90;;;;;;;19.20;67.20;98263.00;4502723;31;20102;-84
2022/07/31 07:37:19;;;;;;;8.50;2.80;;;;;;;19.34;66.58;98261.66;4488206;31;20611;-85
2022/07/31 07:39:45;;;;;;;7.95;2.70;;;;;;;19.40;66.98;98252.19;4502631;31;20427;-84
2022/07/31 07:42:10;;;;;;;6.30;2.37;;;;;;;19.76;65.60;98277.09;4502530;31;20072;-84
2022/07/31 07:44:36;;;;;;;8.10;2.58;;;;;;;19.41;66.39;98249.38;4502707;31;20332;-85
2022/07/31 07:47:01;;;;;;;6.85;2.42;;;;;;;19.13;67.25;98263.78;4502448;31;20100;-84
2022/07/31 07:49:27;;;;;;;7.43;2.70;;;;;;;19.51;65.80;98259.97;4502387;31;20163;-84
2022/07/31 07:51:52;;;;;;;6.00;2.53;;;;;;;19.68;65.00;98254.75;4502532;31;20107;-84
2022/07/31 07:54:17;;;;;;;8.45;2.85;;;;;;;19.21;66.49;98262.00;4502497;31;20088;-84
2022/07/31 07:56:44;;;;;;;6.82;2.72;;;;;;;18.97;66.66;98267.94;4502335;31;20134;-84
2022/07/31 07:59:10;;;;;;;6.53;2.50;;;;;;;19.43;65.35;98263.41;4502440;31;20129;-84
2022/07/31 08:01:35;;;;;;;7.55;2.67;;;;;;;19.69;64.48;98257.28;4487943;31;20431;-84
2022/07/31 08:04:04;;;;;;;6.93;2.50;;;;;;;19.62;64.53;98262.41;4487948;31;20081;-84
2022/07/31 08:06:31;;;;;;;7.22;2.55;;;;;;;19.46;64.94;98243.56;4502242;31;20134;-84
2022/07/31 08:08:56;;;;;;;7.20;2.50;;;;;;;19.12;65.79;98262.06;4502113;31;20425;-84
2022/07/31 08:11:22;;;;;;;8.68;2.60;;;;;;;19.28;65.55;98269.41;4502186;31;20161;-84
2022/07/31 08:13:47;;;;;;;7.45;2.37;;;;;;;19.74;64.24;98251.50;4502054;31;20079;-84
2022/07/31 08:16:13;;;;;;;5.87;2.30;;;;;;;20.03;62.99;98256.56;4487702;31;20190;-84
2022/07/31 08:18:38;;;;;;;4.93;2.28;;;;;;;20.54;61.52;98273.56;4487768;31;20451;-84
2022/07/31 08:21:04;;;;;;;4.93;2.17;;;;;;;20.52;60.96;98256.00;4502903;31;20091;-85
2022/07/31 08:23:29;;;;;;;5.00;2.15;;;;;;;20.45;61.26;98254.97;4504045;31;20088;-84
2022/07/31 08:25:54;;;;;;;6.15;2.20;;;;;;;20.35;61.31;98245.22;4504014;31;20088;-84
2022/07/31 08:28:20;;;;;;;6.07;2.15;;;;;;;20.17;61.47;98255.97;4503993;31;20137;-84
2022/07/31 08:30:45;;;;;;;4.32;2.10;;;;;;;20.44;61.00;98243.44;4489685;31;20111;-84
2022/07/31 08:33:10;;;;;;;6.00;2.17;;;;;;;20.97;59.19;98244.16;4503798;31;20076;-84
2022/07/31 08:35:36;;;;;;;4.68;2.00;;;;;;;20.85;59.16;98253.50;4503961;31;20092;-84
2022/07/31 08:38:01;;;;;;;5.70;1.95;;;;;;;20.40;59.94;98276.84;4503988;31;20084;-83
2022/07/31 08:40:29;;;;;;;5.03;2.10;;;;;;;20.59;59.15;98247.22;4489571;31;20138;-84
2022/07/31 08:42:55;;;;;;;5.60;1.65;;;;;;;21.10;58.32;98257.06;4503905;31;20140;-84
2022/07/31 08:45:21;;;;;;;3.75;1.67;;;;;;;21.34;56.71;98248.25;4476437;31;20134;-84
2022/07/31 08:47:47;;;;;;;6.60;1.98;;;;;;;21.60;55.36;98253.50;4503851;31;20381;-84
2022/07/31 08:50:14;;;;;;;3.83;1.55;;;;;;;21.85;54.42;98248.13;4489565;31;20084;-84
2022/07/31 08:52:42;;;;;;;4.75;1.58;;;;;;;21.51;55.01;98252.62;4503772;31;20451;-84
2022/07/31 08:55:07;;;;;;;5.53;1.80;;;;;;;20.86;56.79;98268.53;4503910;31;20089;-83
2022/07/31 08:57:34;;;;;;;6.00;1.70;;;;;;;20.76;57.29;98258.78;4503658;31;20111;-83
2022/07/31 09:00:00;;;;;;;5.63;1.77;;;;;;;20.65;57.43;98263.59;4489543;31;20392;-84
2022/07/31 09:02:25;;;;;;;5.57;1.80;;;;;;;20.89;56.77;98270.91;4503732;31;20079;-84
2022/07/31 09:04:51;;;;;;;3.80;1.50;;;;;;;21.08;56.07;98249.19;4503669;31;20092;-84
2022/07/31 09:07:16;;;;;;;4.57;1.65;;;;;;;20.56;57.17;98290.31;4503644;31;20088;-84
2022/07/31 09:09:43;;;;;;;5.43;1.60;;;;;;;20.55;57.19;98275.25;4503964;31;20080;-84
2022/07/31 09:12:08;;;;;;;3.90;1.50;;;;;;;20.79;57.07;98274.53;4489322;31;20107;-84
2022/07/31 09:14:34;;;;;;;4.85;1.87;;;;;;;20.20;58.34;98255.69;4503745;31;20092;-85
2022/07/31 09:17:01;;;;;;;4.37;1.62;;;;;;;20.35;57.88;98271.13;4489256;31;20151;-84
2022/07/31 09:19:39;;;;;;;5.82;1.67;;;;;;;20.15;58.70;98268.66;4489283;31;20102;-84
2022/07/31 09:22:04;;;;;;;3.93;1.50;;;;;;;20.34;57.67;98280.13;4503553;31;20110;-84
2022/07/31 09:24:34;;;;;;;4.68;1.60;;;;;;;20.38;57.64;98285.03;4503565;31;20431;-84
2022/07/31 09:27:04;;;;;;;4.95;1.58;;;;;;;20.40;57.34;98288.38;4503488;31;20112;-84
2022/07/31 09:29:37;;;;;;;6.37;1.70;;;;;;;20.76;56.18;98257.97;4503671;31;20112;-83
2022/07/31 09:32:14;;;;;;;4.32;1.50;;;;;;;20.03;58.44;98312.72;4502924;31;20140;-83
2022/07/31 09:34:41;;;;;;;4.28;1.58;;;;;;;20.29;57.83;98277.94;4489257;31;20569;-84
2022/07/31 09:37:16;;;;;;;5.95;1.70;;;;;;;20.30;57.69;98284.13;4503619;31;20092;-84
2022/07/31 09:39:48;;;;;;;3.30;1.35;;;;;;;20.54;57.01;98288.78;4503518;31;20084;-84
2022/07/31 09:42:13;;;;;;;4.75;1.70;;;;;;;20.74;56.10;98287.56;4489274;31;20088;-84
2022/07/31 09:44:41;;;;;;;6.35;1.92;;;;;;;20.41;56.93;98297.25;4489164;31;20394;-84
2022/07/31 09:47:06;;;;;;;;;;;;;;;20.16;57.78;98298.91;4503637;31;20160;-84
2022/07/31 09:49:33;;;;;;;3.97;1.52;;;;;;;19.97;58.68;98299.94;4503247;31;20227;-84
2022/07/31 09:51:59;;;;;;;4.40;1.50;;;;;;;20.67;56.86;98304.44;4489106;31;20147;-84
2022/07/31 09:54:26;;;;;;;6.15;1.90;;;;;;;21.17;55.60;98293.75;4489043;31;20100;-84
2022/07/31 09:56:52;;;;;;;8.32;2.50;;;;;;;21.17;54.91;98309.84;4503442;31;20221;-83
2022/07/31 09:59:18;;;;;;;5.53;1.73;;;;;;;21.14;55.06;98310.16;4489060;31;20468;-84
2022/07/31 10:01:48;;;;;;;5.18;1.62;;;;;;;21.54;54.48;98302.41;4488923;31;20463;-83
2022/07/31 10:04:17;;;;;;;5.93;1.90;;;;;;;21.12;54.42;98314.81;4503299;31;20375;-84
2022/07/31 10:06:46;;;;;;;4.80;1.62;;;;;;;21.21;54.51;98302.31;4503433;31;20083;-83
2022/07/31 10:09:12;;;;;;;4.62;1.62;;;;;;;21.82;53.50;98299.41;4503260;31;20422;-84
2022/07/31 10:11:38;;;;;;;5.95;1.73;;;;;;;22.11;52.20;98320.34;4488937;31;20088;-84
2022/07/31 10:14:06;;;;;;;5.22;1.80;;;;;;;21.92;51.64;98294.69;4488800;31;20159;-84
2022/07/31 10:16:35;;;;;;;4.87;1.62;;;;;;;21.75;52.21;98308.13;4488870;31;20163;-84
2022/07/31 10:19:02;;;;;;;4.90;1.90;;;;;;;21.84;52.31;98284.81;4488858;31;20427;-83
2022/07/31 10:21:34;;;;;;;5.22;1.75;;;;;;;21.66;52.38;98311.78;4475816;31;20084;-84
2022/07/31 10:24:02;;;;;;;4.30;1.80;;;;;;;22.06;52.26;98298.53;4488888;31;20745;-84
2022/07/31 10:26:28;;;;;;;6.30;1.90;;;;;;;21.77;52.71;98294.56;4503225;31;20093;-84
2022/07/31 10:28:54;;;;;;;7.75;1.98;;;;;;;21.83;52.68;98291.19;4488811;31;20435;-84
2022/07/31 10:31:19;;;;;;;5.82;2.10;;;;;;;21.56;53.58;98306.59;4503137;31;20157;-84
2022/07/31 10:33:46;;;;;;;6.75;1.83;;;;;;;21.97;52.94;98303.09;4488714;31;20081;-84
2022/07/31 10:36:20;;;;;;;7.93;2.10;;;;;;;22.19;52.63;98272.03;4503204;31;20558;-84
2022/07/31 10:38:55;;;;;;;5.50;2.00;;;;;;;21.54;53.76;98292.53;4489039;31;20092;-84
2022/07/31 10:41:40;;;;;;;7.95;2.08;;;;;;;21.60;54.11;98286.50;4503080;31;20103;-84
2022/07/31 10:44:26;;;;;;;5.57;2.00;;;;;;;21.44;54.33;98291.84;4502856;31;20115;-83
2022/07/31 10:46:52;;;;;;;7.82;2.28;;;;;;;21.57;53.95;98297.53;4503177;31;20812;-84
2022/07/31 10:49:17;;;;;;;4.85;2.03;;;;;;;21.67;54.07;98302.75;4488416;31;20089;-83
2022/07/31 10:51:50;;;;;;;6.25;2.37;;;;;;;21.45;54.58;98301.53;4503012;31;20408;-83
2022/07/31 10:54:15;;;;;;;7.03;2.20;;;;;;;21.68;53.77;98295.56;4503002;31;20110;-83
2022/07/31 10:56:42;;;;;;;6.18;2.20;;;;;;;21.54;54.38;98338.09;4488603;31;20088;-84
2022/07/31 10:59:08;;;;;;;5.80;2.20;;;;;;;21.69;54.18;98305.25;4488689;31;20498;-84
2022/07/31 11:01:44;;;;;;;5.68;2.40;;;;;;;21.98;53.30;98310.13;4502903;31;20103;-84
2022/07/31 11:04:10;;;;;;;5.45;1.90;;;;;;;21.77;52.85;98334.78;4488736;31;20130;-84
2022/07/31 11:06:39;;;;;;;6.00;2.05;;;;;;;22.20;51.53;98343.47;4502900;31;20096;-84
2022/07/31 11:09:05;;;;;;;8.25;2.15;;;;;;;22.22;51.20;98337.97;4502690;31;20080;-84
2022/07/31 11:11:32;;;;;;;4.95;1.80;;;;;;;21.83;51.92;98317.16;4502769;31;20116;-83
2022/07/31 11:13:59;;;;;;;5.57;2.00;;;;;;;22.19;50.97;98342.66;4488458;31;20096;-84
2022/07/31 11:16:25;;;;;;;4.45;1.80;;;;;;;22.09;51.72;98346.50;4488772;31;20167;-84
2022/07/31 11:19:09;;;;;;;5.25;1.67;;;;;;;22.44;50.84;98349.84;4488589;31;20089;-84
2022/07/31 11:21:37;;;;;;;5.78;2.30;;;;;;;22.05;50.98;98359.41;4502843;31;20098;-84
2022/07/31 11:24:12;;;;;;;;;;;;;;;22.47;50.04;98338.78;4475570;31;20128;-83
2022/07/31 11:26:41;;;;;;;6.18;1.90;;;;;;;22.54;50.10;98337.94;4503009;31;19987;-84
2022/07/31 11:29:10;;;;;;;4.82;2.00;;;;;;;22.34;50.51;98358.09;4502630;31;20500;-84
2022/07/31 11:31:35;;;;;;;9.30;2.30;;;;;;;22.28;50.04;98337.31;4488293;31;20144;-83
2022/07/31 11:34:02;;;;;;;4.35;2.00;;;;;;;22.34;50.33;98363.47;4488298;31;20101;-84
2022/07/31 11:36:28;;;;;;;5.15;1.90;;;;;;;22.73;49.77;98335.84;4502594;31;20088;-84
2022/07/31 11:38:55;;;;;;;7.40;2.40;;;;;;;22.92;49.09;98356.94;4488231;31;20135;-84